Time;durP1;ratioP1;P1;durP2;ratioP2;P2;SDS_P1;SDS_P2;PMS_P1;PMS_P2;Temp;Humidity;BMP_temperature;BMP_pressure;BME280_temperature;BME280_humidity;BME280_pressure;Samples;Min_cycle;Max_cycle;Signal;HPM_P1;HPM_P2
2023/12/15 00:00:58;;;;;;;78.30;28.60;;;5.60;99.90;;;;;;5085876;28;20772;-72
2023/12/15 00:03:24;;;;;;;81.37;28.97;;;5.60;99.90;;;;;;5086594;28;20475;-72
2023/12/15 00:05:50;;;;;;;81.07;29.73;;;5.60;99.90;;;;;;5069942;28;20406;-72
2023/12/15 00:08:15;;;;;;;78.93;28.60;;;5.60;99.90;;;;;;5086353;28;20528;-72
2023/12/15 00:10:41;;;;;;;75.13;28.33;;;5.60;99.90;;;;;;5069877;28;20957;-72
2023/12/15 00:13:06;;;;;;;78.10;28.53;;;5.60;99.90;;;;;;5070404;28;20416;-72
2023/12/15 00:15:32;;;;;;;74.30;29.63;;;5.60;99.90;;;;;;5087739;28;20405;-72
2023/12/15 00:17:59;;;;;;;79.20;29.70;;;5.60;99.90;;;;;;5086591;28;20806;-72
2023/12/15 00:20:24;;;;;;;82.32;29.63;;;5.60;99.90;;;;;;5086266;28;20497;-72
2023/12/15 00:22:50;;;;;;;84.45;30.55;;;5.60;99.90;;;;;;5086327;28;20838;-72
2023/12/15 00:25:15;;;;;;;80.73;28.60;;;5.60;99.90;;;;;;5086494;28;20398;-72
2023/12/15 00:27:41;;;;;;;86.37;30.93;;;5.70;99.90;;;;;;5085763;28;20398;-72
2023/12/15 00:30:07;;;;;;;95.95;30.48;;;5.70;99.90;;;;;;5092328;28;20436;-72
2023/12/15 00:32:32;;;;;;;83.63;29.67;;;5.70;99.90;;;;;;5094827;28;20481;-72
2023/12/15 00:34:58;;;;;;;86.43;31.13;;;5.70;99.90;;;;;;5108577;28;20415;-72
2023/12/15 00:37:24;;;;;;;93.45;32.60;;;5.70;99.90;;;;;;5107298;28;20504;-72
2023/12/15 00:39:50;;;;;;;87.57;31.17;;;5.70;99.90;;;;;;5107650;28;20404;-72
2023/12/15 00:42:15;;;;;;;88.20;30.53;;;5.70;99.90;;;;;;5094522;28;20467;-72
2023/12/15 00:44:41;;;;;;;85.93;31.95;;;5.70;99.90;;;;;;5082792;28;20412;-72
2023/12/15 00:47:06;;;;;;;83.18;30.58;;;5.70;99.90;;;;;;5082971;28;20416;-72
2023/12/15 00:49:32;;;;;;;76.83;31.23;;;5.80;99.90;;;;;;5085252;28;20481;-72
2023/12/15 00:51:58;;;;;;;87.22;31.80;;;5.80;99.90;;;;;;5095845;28;20411;-72
2023/12/15 00:54:23;;;;;;;74.07;30.58;;;5.80;99.90;;;;;;5107942;28;20447;-72
2023/12/15 00:56:49;;;;;;;72.93;30.10;;;5.80;99.90;;;;;;5109862;28;20475;-72
2023/12/15 00:59:16;;;;;;;75.10;30.23;;;5.80;99.90;;;;;;5108012;28;20403;-72
2023/12/15 01:01:41;;;;;;;91.63;32.33;;;5.80;99.90;;;;;;5108871;28;20466;-72
2023/12/15 01:04:07;;;;;;;77.43;31.10;;;5.80;99.90;;;;;;5095276;28;20408;-72
2023/12/15 01:06:32;;;;;;;77.03;29.73;;;5.80;99.90;;;;;;5106954;28;20412;-72
2023/12/15 01:08:58;;;;;;;81.03;30.70;;;5.90;99.90;;;;;;5105394;28;20927;-72
2023/12/15 01:11:23;;;;;;;82.60;31.15;;;5.90;99.90;;;;;;5102061;28;20408;-72
2023/12/15 01:13:49;;;;;;;78.00;30.23;;;5.90;99.90;;;;;;5105625;28;20474;-72
2023/12/15 01:16:15;;;;;;;86.37;31.97;;;5.90;99.90;;;;;;5106802;28;20473;-72
2023/12/15 01:18:41;;;;;;;72.95;30.05;;;5.90;99.90;;;;;;5104546;28;20404;-72
2023/12/15 01:21:06;;;;;;;82.82;32.28;;;6.00;99.90;;;;;;5106291;28;20411;-72
2023/12/15 01:23:35;;;;;;;81.57;31.50;;;6.00;99.90;;;;;;5103963;28;20427;-72
2023/12/15 01:26:01;;;;;;;73.05;30.33;;;6.00;99.90;;;;;;5094099;28;20418;-72
2023/12/15 01:28:27;;;;;;;76.40;30.67;;;6.00;99.90;;;;;;5105552;28;20513;-72
2023/12/15 01:30:53;;;;;;;87.67;33.03;;;6.00;99.90;;;;;;5088350;28;20865;-72
2023/12/15 01:33:18;;;;;;;88.22;32.90;;;6.10;99.90;;;;;;5105522;28;20406;-72
2023/12/15 01:35:44;;;;;;;81.60;32.33;;;6.00;99.90;;;;;;5104967;28;20475;-72
2023/12/15 01:38:10;;;;;;;85.10;32.43;;;6.10;99.90;;;;;;5103649;28;20407;-72
2023/12/15 01:40:36;;;;;;;92.75;33.95;;;6.00;99.90;;;;;;5076523;28;20433;-72
2023/12/15 01:43:01;;;;;;;95.90;34.00;;;6.10;99.90;;;;;;5088068;28;20409;-72
2023/12/15 01:45:27;;;;;;;86.87;33.83;;;6.10;99.90;;;;;;5093412;28;20410;-72
2023/12/15 01:47:54;;;;;;;99.60;34.60;;;6.10;99.90;;;;;;5092089;28;20406;-72
2023/12/15 01:50:19;;;;;;;90.28;33.20;;;6.10;99.90;;;;;;5096778;28;20415;-72
2023/12/15 01:52:45;;;;;;;82.07;34.10;;;6.10;99.90;;;;;;5095618;28;20408;-72
2023/12/15 01:55:11;;;;;;;84.10;33.20;;;6.10;99.90;;;;;;5092027;28;20435;-72
2023/12/15 01:57:36;;;;;;;107.88;35.60;;;6.10;99.90;;;;;;5086360;28;20419;-72
2023/12/15 02:00:06;;;;;;;111.87;36.60;;;6.10;99.90;;;;;;5091626;28;20419;-72
2023/12/15 02:02:33;;;;;;;95.05;35.08;;;6.10;99.90;;;;;;5075382;28;20597;-72
2023/12/15 02:04:59;;;;;;;91.20;35.63;;;6.20;99.90;;;;;;5095816;28;20513;-72
2023/12/15 02:07:25;;;;;;;99.33;35.70;;;6.20;99.90;;;;;;5092311;28;20485;-72
2023/12/15 02:09:50;;;;;;;97.47;34.93;;;6.20;99.90;;;;;;5094975;28;20524;-72
2023/12/15 02:12:16;;;;;;;86.28;33.53;;;6.20;99.90;;;;;;5091219;28;20410;-72
2023/12/15 02:14:43;;;;;;;99.00;35.73;;;6.20;99.90;;;;;;5080440;28;20404;-72
2023/12/15 02:17:10;;;;;;;95.35;35.80;;;6.20;99.90;;;;;;5092303;28;20507;-72
2023/12/15 02:19:35;;;;;;;96.28;35.33;;;6.20;99.90;;;;;;5092154;28;20500;-72
2023/12/15 02:22:01;;;;;;;101.93;35.67;;;6.30;99.90;;;;;;5096441;28;20973;-72
2023/12/15 02:24:27;;;;;;;98.72;34.72;;;6.30;99.90;;;;;;5093345;28;20412;-72
2023/12/15 02:26:52;;;;;;;111.68;37.05;;;6.30;99.90;;;;;;5078322;28;20404;-72
2023/12/15 02:29:18;;;;;;;90.97;35.07;;;6.30;99.90;;;;;;5091400;28;20471;-72
2023/12/15 02:31:43;;;;;;;118.07;36.03;;;6.30;99.90;;;;;;5093807;28;20412;-72
2023/12/15 02:34:09;;;;;;;109.43;36.47;;;6.30;99.90;;;;;;5092952;28;20413;-72
2023/12/15 02:36:35;;;;;;;103.80;36.03;;;6.30;99.90;;;;;;5093688;28;20406;-72
2023/12/15 02:39:02;;;;;;;116.10;37.27;;;6.30;99.90;;;;;;5090230;28;20907;-72
2023/12/15 02:41:32;;;;;;;112.07;36.22;;;6.40;99.90;;;;;;5075265;28;20410;-72
2023/12/15 02:43:58;;;;;;;100.95;34.55;;;6.40;99.90;;;;;;5090545;28;20410;-72
2023/12/15 02:46:23;;;;;;;109.95;34.78;;;6.40;99.90;;;;;;5092735;28;20412;-72
2023/12/15 02:48:49;;;;;;;123.43;35.97;;;6.40;99.90;;;;;;5087802;28;20459;-72
2023/12/15 02:51:26;;;;;;;103.13;32.83;;;6.50;99.90;;;;;;5090431;28;20407;-72
2023/12/15 02:53:51;;;;;;;96.18;32.00;;;6.40;99.90;;;;;;5091296;28;20480;-72
2023/12/15 02:56:17;;;;;;;95.38;31.40;;;6.50;99.90;;;;;;5089581;28;20440;-72
2023/12/15 02:58:42;;;;;;;82.67;29.80;;;6.50;99.90;;;;;;5087018;28;20410;-72
2023/12/15 03:01:08;;;;;;;86.72;30.88;;;6.50;99.90;;;;;;5093420;28;20422;-72
2023/12/15 03:03:34;;;;;;;85.17;30.40;;;6.50;99.90;;;;;;5092576;28;20397;-72
2023/12/15 03:05:59;;;;;;;85.43;30.20;;;6.50;99.90;;;;;;5092468;28;20500;-72
2023/12/15 03:08:27;;;;;;;75.68;29.45;;;6.50;99.90;;;;;;5089694;28;20525;-72
2023/12/15 03:10:57;;;;;;;83.28;29.23;;;6.50;99.90;;;;;;5069887;28;20417;-72
2023/12/15 03:13:28;;;;;;;102.85;30.42;;;6.50;99.90;;;;;;5089671;28;20471;-72
2023/12/15 03:15:55;;;;;;;98.10;32.40;;;6.50;99.90;;;;;;5091309;28;20445;-72
2023/12/15 03:18:21;;;;;;;102.28;32.63;;;6.50;99.90;;;;;;5090886;28;20401;-72
2023/12/15 03:20:46;;;;;;;100.20;32.67;;;6.50;99.90;;;;;;5090380;28;20409;-72
2023/12/15 03:23:12;;;;;;;111.67;33.17;;;6.50;99.90;;;;;;5089337;28;20602;-72
2023/12/15 03:25:39;;;;;;;93.90;31.38;;;6.50;99.90;;;;;;5090842;28;20462;-72
2023/12/15 03:28:04;;;;;;;95.20;30.90;;;6.50;99.90;;;;;;5089232;28;20406;-72
2023/12/15 03:30:30;;;;;;;92.53;31.35;;;6.50;99.90;;;;;;5087530;28;20447;-72
2023/12/15 03:32:55;;;;;;;85.83;31.00;;;6.50;99.90;;;;;;5088026;28;20410;-72
2023/12/15 03:35:21;;;;;;;102.00;32.20;;;6.60;99.90;;;;;;5087568;28;20433;-72
2023/12/15 03:37:47;;;;;;;90.78;32.08;;;6.60;99.90;;;;;;5088070;28;20398;-72
2023/12/15 03:40:13;;;;;;;99.63;33.35;;;6.50;99.90;;;;;;5089122;28;20763;-72
2023/12/15 03:42:38;;;;;;;92.80;32.57;;;6.50;99.90;;;;;;5088506;28;20417;-72
2023/12/15 03:45:04;;;;;;;101.68;33.42;;;6.50;99.90;;;;;;5089865;28;21142;-72
2023/12/15 03:47:31;;;;;;;105.97;34.20;;;6.50;99.90;;;;;;5087741;28;20417;-72
2023/12/15 03:49:56;;;;;;;119.63;35.13;;;6.50;99.90;;;;;;5087312;28;20512;-72
2023/12/15 03:52:22;;;;;;;97.87;33.90;;;6.40;99.90;;;;;;5090935;28;20440;-72
2023/12/15 03:54:47;;;;;;;103.50;33.15;;;6.30;99.90;;;;;;5090112;28;20578;-72
2023/12/15 03:57:13;;;;;;;97.47;33.17;;;6.30;99.90;;;;;;5092741;28;20489;-72
2023/12/15 03:59:39;;;;;;;109.63;34.47;;;6.20;99.90;;;;;;5091653;28;20734;-72
2023/12/15 04:02:05;;;;;;;106.13;34.78;;;6.20;99.90;;;;;;5093464;28;20413;-72
2023/12/15 04:04:32;;;;;;;113.10;34.90;;;6.20;99.90;;;;;;5092385;28;20402;-72
2023/12/15 04:06:58;;;;;;;108.00;34.65;;;6.10;99.90;;;;;;5094669;28;20768;-72
2023/12/15 04:09:23;;;;;;;102.68;33.65;;;6.10;99.90;;;;;;5096096;28;20434;-72
2023/12/15 04:11:49;;;;;;;112.37;35.53;;;6.10;99.90;;;;;;5097409;28;20421;-72
2023/12/15 04:14:15;;;;;;;104.07;34.17;;;6.10;99.90;;;;;;5095448;28;21020;-72
2023/12/15 04:16:41;;;;;;;111.68;34.03;;;6.00;99.90;;;;;;5096222;28;20903;-72
2023/12/15 04:19:07;;;;;;;117.80;35.22;;;6.00;99.90;;;;;;5096140;28;20401;-72
2023/12/15 04:21:33;;;;;;;107.35;33.58;;;6.00;99.90;;;;;;5095764;28;20397;-72
2023/12/15 04:23:58;;;;;;;101.73;33.73;;;5.90;99.90;;;;;;5094088;28;20895;-71
2023/12/15 04:26:24;;;;;;;112.53;34.60;;;5.90;99.90;;;;;;5104395;28;20477;-72
2023/12/15 04:28:49;;;;;;;122.80;34.97;;;5.80;99.90;;;;;;5095344;28;20474;-72
2023/12/15 04:31:15;;;;;;;122.83;35.97;;;5.80;99.90;;;;;;5094970;28;20787;-72
2023/12/15 04:33:41;;;;;;;138.40;36.10;;;5.80;99.90;;;;;;5094738;28;20493;-72
2023/12/15 04:36:10;;;;;;;106.45;34.35;;;5.70;99.90;;;;;;5095050;28;20914;-72
2023/12/15 04:38:36;;;;;;;110.22;35.47;;;5.60;99.90;;;;;;5096114;28;20397;-72
2023/12/15 04:41:02;;;;;;;143.85;37.83;;;5.70;99.90;;;;;;5094862;28;20406;-72
2023/12/15 04:43:28;;;;;;;128.27;37.73;;;5.60;99.90;;;;;;5093751;28;20409;-72
2023/12/15 04:45:55;;;;;;;117.20;37.07;;;5.60;99.90;;;;;;5094080;28;20821;-72
2023/12/15 04:48:21;;;;;;;121.57;36.25;;;5.60;99.90;;;;;;5076550;28;20421;-72
2023/12/15 04:50:47;;;;;;;155.10;40.07;;;5.50;99.90;;;;;;5091908;28;20413;-72
2023/12/15 04:53:13;;;;;;;139.20;38.92;;;5.60;99.90;;;;;;5094549;28;20429;-72
2023/12/15 04:55:38;;;;;;;127.63;38.50;;;5.50;99.90;;;;;;5095620;28;20402;-72
2023/12/15 04:58:05;;;;;;;124.97;37.77;;;5.50;99.90;;;;;;5094366;28;20430;-72
2023/12/15 05:00:31;;;;;;;132.60;38.47;;;5.60;99.90;;;;;;5095676;28;20756;-72
2023/12/15 05:02:57;;;;;;;136.68;38.70;;;5.60;99.90;;;;;;5093297;28;20485;-72
2023/12/15 05:05:22;;;;;;;124.00;36.77;;;5.60;99.90;;;;;;5094566;28;20440;-72
2023/12/15 05:07:48;;;;;;;120.97;37.22;;;5.60;99.90;;;;;;5093773;28;20446;-72
2023/12/15 05:10:14;;;;;;;100.90;33.63;;;5.50;99.90;;;;;;5094748;28;20479;-72
2023/12/15 05:12:39;;;;;;;110.85;34.97;;;5.50;99.90;;;;;;5094188;28;20405;-72
2023/12/15 05:15:06;;;;;;;122.27;36.27;;;5.50;99.90;;;;;;5095419;28;20537;-72
2023/12/15 05:17:32;;;;;;;109.47;34.77;;;5.50;99.90;;;;;;5093421;28;20402;-72
2023/12/15 05:19:58;;;;;;;102.95;33.40;;;5.50;99.90;;;;;;5094918;28;20405;-72
2023/12/15 05:22:24;;;;;;;92.18;31.73;;;5.50;99.90;;;;;;5093557;28;20406;-72
2023/12/15 05:24:51;;;;;;;87.32;31.02;;;5.40;99.90;;;;;;5093168;28;20406;-72
2023/12/15 05:27:17;;;;;;;96.15;31.25;;;5.50;99.90;;;;;;5090964;28;20436;-72
2023/12/15 05:29:46;;;;;;;97.25;30.55;;;5.50;99.90;;;;;;5093476;28;20460;-72
2023/12/15 05:32:16;;;;;;;89.75;29.92;;;5.50;99.90;;;;;;5092108;28;20402;-72
2023/12/15 05:34:42;;;;;;;81.25;28.10;;;5.50;99.90;;;;;;5092233;28;20402;-72
2023/12/15 05:37:08;;;;;;;80.32;28.20;;;5.50;99.90;;;;;;5091918;28;20402;-72
2023/12/15 05:39:34;;;;;;;80.40;27.30;;;5.60;99.90;;;;;;5094613;28;20407;-72
2023/12/15 05:41:59;;;;;;;84.43;27.45;;;5.60;99.90;;;;;;5090767;28;21252;-72
2023/12/15 05:44:25;;;;;;;79.87;26.63;;;5.60;99.90;;;;;;5091999;28;20400;-72
2023/12/15 05:46:50;;;;;;;83.07;26.90;;;5.60;99.90;;;;;;5090894;28;20434;-72
2023/12/15 05:49:16;;;;;;;77.88;26.90;;;5.60;99.90;;;;;;5090364;28;20495;-72
2023/12/15 05:51:48;;;;;;;100.40;28.00;;;5.60;99.90;;;;;;5091455;28;20935;-72
2023/12/15 05:54:14;;;;;;;108.97;28.80;;;5.50;99.90;;;;;;5094403;28;20413;-72
2023/12/15 05:56:41;;;;;;;87.95;27.10;;;5.50;99.90;;;;;;5091258;28;20395;-72
2023/12/15 05:59:06;;;;;;;112.67;28.73;;;5.50;99.90;;;;;;5031824;28;1770852;-72
2023/12/15 06:01:32;;;;;;;87.25;27.17;;;5.50;99.90;;;;;;5092072;28;20790;-72
2023/12/15 06:03:57;;;;;;;96.83;27.23;;;5.50;99.90;;;;;;5095283;28;20441;-72
2023/12/15 06:06:23;;;;;;;103.93;28.05;;;5.40;99.90;;;;;;5091336;28;20417;-72
2023/12/15 06:08:49;;;;;;;128.43;30.27;;;5.40;99.90;;;;;;5096369;28;20521;-71
2023/12/15 06:11:15;;;;;;;105.10;28.08;;;5.40;99.90;;;;;;5087905;28;20451;-72
2023/12/15 06:13:41;;;;;;;87.90;25.97;;;5.30;99.90;;;;;;5095732;28;20396;-72
2023/12/15 06:16:08;;;;;;;99.88;27.45;;;5.20;99.90;;;;;;5087777;28;20923;-72
2023/12/15 06:18:33;;;;;;;98.05;27.30;;;5.20;99.90;;;;;;5094009;28;20404;-72
2023/12/15 06:20:59;;;;;;;138.80;30.75;;;5.20;99.90;;;;;;5091338;28;20459;-72
2023/12/15 06:23:25;;;;;;;90.97;26.85;;;5.10;99.90;;;;;;5091520;28;20491;-72
2023/12/15 06:25:50;;;;;;;108.55;27.83;;;5.10;99.90;;;;;;5091640;28;20406;-72
2023/12/15 06:28:16;;;;;;;88.47;25.60;;;5.10;99.90;;;;;;5094252;28;20411;-72
2023/12/15 06:30:42;;;;;;;79.28;24.55;;;5.10;99.90;;;;;;5092643;28;20409;-72
2023/12/15 06:33:07;;;;;;;88.30;25.77;;;5.10;99.90;;;;;;5091817;28;20461;-70
2023/12/15 06:35:33;;;;;;;91.17;25.83;;;5.20;99.90;;;;;;5092962;28;20493;-70
2023/12/15 06:38:00;;;;;;;101.60;26.40;;;5.20;99.90;;;;;;5089032;28;20495;-70
2023/12/15 06:40:25;;;;;;;79.57;23.85;;;5.30;99.90;;;;;;5065184;28;20434;-72
2023/12/15 06:42:51;;;;;;;80.40;24.17;;;5.30;99.90;;;;;;5091169;28;20909;-72
2023/12/15 06:45:16;;;;;;;97.30;24.87;;;5.30;99.90;;;;;;5091553;28;20490;-72
2023/12/15 06:47:42;;;;;;;83.03;24.63;;;5.30;99.90;;;;;;5088111;28;20409;-72
2023/12/15 06:50:08;;;;;;;80.47;23.03;;;5.40;99.90;;;;;;5094028;28;20451;-72
2023/12/15 06:52:35;;;;;;;64.45;21.85;;;5.30;99.90;;;;;;5091699;28;20483;-72
2023/12/15 06:55:02;;;;;;;73.65;21.67;;;5.40;99.90;;;;;;5081199;28;20418;-72
2023/12/15 06:57:28;;;;;;;68.27;20.67;;;5.40;99.90;;;;;;5092703;28;20405;-72
2023/12/15 06:59:53;;;;;;;75.53;22.77;;;5.50;99.90;;;;;;5091272;28;20417;-72
2023/12/15 07:02:19;;;;;;;57.55;20.42;;;5.40;99.90;;;;;;5092432;28;20408;-72
2023/12/15 07:04:45;;;;;;;72.17;22.00;;;5.40;99.90;;;;;;5079618;28;20414;-72
2023/12/15 07:07:11;;;;;;;101.30;24.63;;;5.50;99.90;;;;;;5092044;28;20933;-72
2023/12/15 07:09:37;;;;;;;75.68;21.48;;;5.40;99.90;;;;;;5087177;28;20509;-72
2023/12/15 07:12:03;;;;;;;88.35;23.50;;;5.30;99.90;;;;;;5093840;28;20545;-72
2023/12/15 07:14:31;;;;;;;66.20;19.85;;;5.30;99.90;;;;;;5089247;28;21030;-73
2023/12/15 07:16:57;;;;;;;75.60;20.58;;;5.30;99.90;;;;;;5093100;28;20412;-73
2023/12/15 07:19:22;;;;;;;59.87;18.70;;;5.40;99.90;;;;;;5091108;28;20769;-73
2023/12/15 07:21:48;;;;;;;78.83;20.33;;;5.40;99.90;;;;;;5091135;28;20402;-73
2023/12/15 07:24:14;;;;;;;56.33;18.98;;;5.50;99.90;;;;;;5089172;28;21235;-73
2023/12/15 07:26:39;;;;;;;66.03;19.03;;;5.40;99.90;;;;;;5091754;28;20541;-73
2023/12/15 07:29:05;;;;;;;58.43;18.73;;;5.50;99.90;;;;;;5089503;28;20935;-72
2023/12/15 07:31:31;;;;;;;55.50;18.48;;;5.50;99.90;;;;;;5089041;28;20402;-73
2023/12/15 07:33:56;;;;;;;60.75;18.67;;;5.60;99.90;;;;;;5088337;28;20406;-72
2023/12/15 07:36:22;;;;;;;70.87;20.43;;;5.70;99.90;;;;;;5090203;28;20904;-73
2023/12/15 07:38:48;;;;;;;71.20;19.42;;;5.70;99.90;;;;;;5069508;28;20481;-73
2023/12/15 07:41:14;;;;;;;70.22;19.40;;;5.80;99.90;;;;;;5089524;28;20488;-73
2023/12/15 07:43:40;;;;;;;70.17;20.10;;;5.80;99.90;;;;;;5087770;28;20417;-72
2023/12/15 07:46:18;;;;;;;68.07;19.67;;;5.80;99.90;;;;;;5089406;28;20406;-72
2023/12/15 07:48:44;;;;;;;61.55;17.45;;;5.80;99.90;;;;;;5085283;28;20564;-73
2023/12/15 07:51:20;;;;;;;64.47;19.17;;;5.90;99.90;;;;;;5090111;28;20491;-72
2023/12/15 07:53:49;;;;;;;60.78;18.27;;;5.90;99.90;;;;;;5090429;28;20413;-73
2023/12/15 07:56:26;;;;;;;58.75;17.10;;;5.90;99.90;;;;;;5073078;28;20877;-73
2023/12/15 07:58:52;;;;;;;58.33;16.77;;;5.90;99.90;;;;;;5092489;28;20754;-73
2023/12/15 08:01:19;;;;;;;52.13;16.23;;;5.90;99.90;;;;;;5091993;28;20406;-73
2023/12/15 08:03:45;;;;;;;59.70;17.00;;;5.90;99.90;;;;;;5092981;28;20426;-72
2023/12/15 08:06:13;;;;;;;52.72;15.90;;;6.00;99.90;;;;;;5092163;28;20915;-73
2023/12/15 08:08:39;;;;;;;56.85;16.58;;;6.00;99.90;;;;;;5093457;28;20457;-73
2023/12/15 08:11:05;;;;;;;53.33;15.77;;;6.10;99.90;;;;;;5097002;28;20444;-72
2023/12/15 08:13:31;;;;;;;60.83;16.83;;;6.10;99.90;;;;;;5097009;28;20415;-73
2023/12/15 08:15:56;;;;;;;62.00;17.33;;;6.10;99.90;;;;;;5093385;28;20532;-75
2023/12/15 08:18:22;;;;;;;63.35;17.17;;;6.20;99.90;;;;;;5088783;28;21483;-74
2023/12/15 08:20:48;;;;;;;61.80;16.17;;;6.20;99.90;;;;;;5087066;28;20414;-72
2023/12/15 08:23:14;;;;;;;59.07;16.13;;;6.20;99.90;;;;;;5092666;28;20410;-73
2023/12/15 08:25:40;;;;;;;64.60;17.17;;;6.10;99.90;;;;;;5092564;28;21063;-72
2023/12/15 08:28:05;;;;;;;72.30;17.90;;;6.10;99.90;;;;;;5093870;28;20414;-72
2023/12/15 08:30:31;;;;;;;59.72;16.05;;;6.10;99.90;;;;;;5090961;28;20487;-73
2023/12/15 08:32:58;;;;;;;60.97;16.00;;;6.10;99.90;;;;;;5092988;28;20454;-73
2023/12/15 08:35:24;;;;;;;59.47;16.33;;;6.10;99.90;;;;;;5090556;28;20434;-73
2023/12/15 08:37:49;;;;;;;57.50;14.98;;;6.20;99.90;;;;;;5092477;28;20638;-73
2023/12/15 08:40:15;;;;;;;47.03;13.80;;;6.20;99.90;;;;;;5091098;28;20400;-73
2023/12/15 08:42:41;;;;;;;60.15;13.25;;;6.30;99.90;;;;;;5093613;28;20416;-73
2023/12/15 08:45:07;;;;;;;66.57;16.00;;;6.30;99.90;;;;;;5091029;28;20398;-73
2023/12/15 08:47:33;;;;;;;56.20;14.35;;;6.30;99.90;;;;;;5092955;28;20487;-72
2023/12/15 08:49:58;;;;;;;46.83;13.20;;;6.40;99.90;;;;;;5087290;28;20472;-73
2023/12/15 08:52:24;;;;;;;55.30;13.83;;;6.40;99.90;;;;;;5093344;28;20832;-74
2023/12/15 08:54:50;;;;;;;50.17;13.93;;;6.40;99.90;;;;;;5095804;28;20405;-73
2023/12/15 08:57:15;;;;;;;47.60;12.60;;;6.40;99.90;;;;;;5091652;28;20421;-73
2023/12/15 08:59:42;;;;;;;47.70;12.25;;;6.50;99.90;;;;;;5094532;28;20811;-73
2023/12/15 09:02:08;;;;;;;48.08;11.70;;;6.50;99.90;;;;;;5096428;28;20888;-73
2023/12/15 09:04:34;;;;;;;47.45;12.27;;;6.50;99.90;;;;;;5093958;28;20441;-73
2023/12/15 09:07:00;;;;;;;43.17;10.50;;;6.60;99.90;;;;;;5095056;28;20445;-73
2023/12/15 09:09:26;;;;;;;38.57;10.40;;;6.60;99.90;;;;;;5094175;28;20826;-73
2023/12/15 09:11:51;;;;;;;40.63;10.07;;;6.60;99.90;;;;;;5094982;28;20402;-73
2023/12/15 09:14:17;;;;;;;46.80;10.20;;;6.70;99.90;;;;;;5076483;28;20450;-73
2023/12/15 09:16:43;;;;;;;39.00;9.10;;;6.70;99.90;;;;;;5091631;28;20418;-73
2023/12/15 09:19:09;;;;;;;41.33;8.82;;;6.70;99.90;;;;;;5092069;28;20826;-73
2023/12/15 09:21:35;;;;;;;42.80;8.60;;;6.70;99.90;;;;;;5093482;28;20409;-73
2023/12/15 09:24:00;;;;;;;38.10;8.02;;;6.70;99.90;;;;;;5093169;28;20926;-73
2023/12/15 09:26:26;;;;;;;38.07;8.53;;;6.70;99.90;;;;;;5093578;28;20493;-73
2023/12/15 09:28:53;;;;;;;44.60;8.70;;;6.80;99.90;;;;;;5092198;28;20429;-73
2023/12/15 09:31:18;;;;;;;36.65;8.38;;;6.80;99.90;;;;;;5091372;28;20445;-73
2023/12/15 09:33:44;;;;;;;43.77;8.73;;;6.80;99.90;;;;;;5092340;28;20434;-73
2023/12/15 09:36:10;;;;;;;48.28;9.50;;;6.80;99.90;;;;;;5091438;28;20398;-73
2023/12/15 09:38:36;;;;;;;38.58;7.80;;;6.80;99.90;;;;;;5090817;28;20444;-73
2023/12/15 09:41:02;;;;;;;35.15;7.32;;;6.80;99.90;;;;;;5090853;28;20783;-74
2023/12/15 09:43:27;;;;;;;39.37;8.40;;;6.90;99.90;;;;;;5091684;28;20877;-73
2023/12/15 09:45:57;;;;;;;38.43;8.07;;;6.90;99.90;;;;;;5092213;28;20985;-73
2023/12/15 09:48:23;;;;;;;39.25;7.90;;;7.00;99.90;;;;;;5089710;28;20497;-73
2023/12/15 09:50:55;;;;;;;40.75;8.18;;;7.00;99.90;;;;;;5092149;28;20398;-73
2023/12/15 09:53:22;;;;;;;36.13;7.43;;;7.10;99.90;;;;;;5095330;28;20409;-73
2023/12/15 09:55:49;;;;;;;41.77;8.30;;;7.10;99.90;;;;;;5101499;28;20435;-73
2023/12/15 09:58:17;;;;;;;38.58;8.27;;;7.20;99.90;;;;;;5087166;28;20515;-74
2023/12/15 10:00:43;;;;;;;34.25;7.88;;;7.20;99.90;;;;;;5099882;28;20444;-73
2023/12/15 10:03:08;;;;;;;35.90;8.05;;;7.20;99.90;;;;;;5081604;28;20445;-73
2023/12/15 10:05:34;;;;;;;34.60;7.43;;;7.30;99.90;;;;;;5099716;28;20409;-73
2023/12/15 10:08:00;;;;;;;35.95;7.60;;;7.30;99.90;;;;;;5086286;28;20484;-73
2023/12/15 10:10:28;;;;;;;37.13;7.95;;;7.30;99.90;;;;;;5098436;28;20412;-73
2023/12/15 10:12:56;;;;;;;32.10;7.22;;;7.40;99.90;;;;;;5080022;28;20471;-73
2023/12/15 10:15:22;;;;;;;37.72;7.65;;;7.40;99.90;;;;;;5097774;28;20425;-73
2023/12/15 10:17:49;;;;;;;34.93;7.57;;;7.40;99.90;;;;;;5092031;28;20413;-73
2023/12/15 10:20:17;;;;;;;36.08;7.22;;;7.50;99.90;;;;;;5096173;28;20408;-73
2023/12/15 10:22:42;;;;;;;35.20;7.13;;;7.50;99.90;;;;;;5092251;28;20787;-73
2023/12/15 10:25:16;;;;;;;33.80;7.85;;;7.50;99.90;;;;;;5092946;28;20433;-73
2023/12/15 10:27:42;;;;;;;37.30;8.15;;;7.60;99.90;;;;;;5092233;28;20493;-74
2023/12/15 10:30:08;;;;;;;34.63;7.35;;;7.60;99.90;;;;;;5078064;28;20428;-73
2023/12/15 10:32:34;;;;;;;31.83;6.95;;;7.60;99.90;;;;;;5092862;28;20433;-73
2023/12/15 10:35:03;;;;;;;32.00;7.53;;;7.60;99.90;;;;;;5093945;28;20941;-74
2023/12/15 10:37:29;;;;;;;32.33;7.35;;;7.70;99.90;;;;;;5090318;28;20459;-74
2023/12/15 10:39:56;;;;;;;29.35;6.00;;;7.70;99.90;;;;;;5093549;28;20402;-74
2023/12/15 10:42:23;;;;;;;28.88;6.68;;;7.70;99.90;;;;;;5091655;28;20804;-74
2023/12/15 10:44:51;;;;;;;33.72;6.57;;;7.70;99.90;;;;;;5090602;28;20927;-74
2023/12/15 10:47:18;;;;;;;34.50;6.88;;;7.80;99.90;;;;;;5090741;28;20406;-73
2023/12/15 10:49:46;;;;;;;32.15;6.88;;;7.90;99.90;;;;;;5089694;28;20496;-73
2023/12/15 10:52:15;;;;;;;34.40;6.30;;;7.90;99.90;;;;;;5091455;28;20410;-74
2023/12/15 10:54:42;;;;;;;29.80;7.13;;;8.00;99.90;;;;;;5090994;28;20402;-74
2023/12/15 10:57:10;;;;;;;32.30;6.40;;;8.00;99.90;;;;;;5092526;28;20420;-73
2023/12/15 10:59:39;;;;;;;36.33;7.32;;;8.00;99.90;;;;;;5091641;28;20402;-73
2023/12/15 11:02:07;;;;;;;32.33;7.15;;;8.00;99.90;;;;;;5093249;28;20458;-73
2023/12/15 11:04:34;;;;;;;30.67;6.93;;;8.00;99.90;;;;;;5090635;28;20406;-73
2023/12/15 11:07:00;;;;;;;29.98;6.25;;;8.00;99.90;;;;;;5089297;28;20406;-74
2023/12/15 11:09:33;;;;;;;28.30;6.38;;;8.00;99.90;;;;;;5091941;28;20911;-74
2023/12/15 11:12:22;;;;;;;32.67;6.75;;;8.00;99.90;;;;;;5093396;28;20439;-74
2023/12/15 11:15:12;;;;;;;32.95;7.10;;;8.00;99.90;;;;;;5082548;28;20804;-74
2023/12/15 11:17:43;;;;;;;29.10;6.30;;;8.10;99.90;;;;;;5075652;28;20438;-73
2023/12/15 11:20:20;;;;;;;32.22;6.88;;;8.10;99.90;;;;;;5092365;28;20930;-74
2023/12/15 11:23:05;;;;;;;26.65;5.68;;;8.10;99.90;;;;;;5090177;28;20402;-73
2023/12/15 11:25:34;;;;;;;31.98;6.55;;;8.10;99.90;;;;;;5083093;28;20940;-74
2023/12/15 11:28:07;;;;;;;31.17;6.53;;;8.20;99.90;;;;;;5084701;28;20832;-74
2023/12/15 11:30:37;;;;;;;34.78;6.78;;;8.20;99.90;;;;;;5090247;28;20473;-74
2023/12/15 11:33:30;;;;;;;32.03;6.07;;;8.20;99.90;;;;;;5090943;28;20422;-74
2023/12/15 11:36:05;;;;;;;35.88;6.90;;;8.30;99.90;;;;;;5079344;28;20497;-74
2023/12/15 11:38:30;;;;;;;37.10;6.80;;;8.30;99.90;;;;;;5087436;28;20862;-74
2023/12/15 11:40:57;;;;;;;31.38;6.28;;;8.30;99.90;;;;;;5090106;28;20440;-74
2023/12/15 11:43:26;;;;;;;30.85;6.30;;;8.30;99.90;;;;;;5089690;28;20410;-73
2023/12/15 11:45:53;;;;;;;30.60;6.22;;;8.30;99.90;;;;;;5070557;28;20416;-74
2023/12/15 11:48:18;;;;;;;32.53;6.47;;;8.40;99.90;;;;;;5087930;28;20731;-74
2023/12/15 11:50:46;;;;;;;28.63;5.97;;;8.40;99.90;;;;;;5087851;28;20404;-73
2023/12/15 11:53:15;;;;;;;30.50;6.03;;;8.50;99.90;;;;;;5088220;28;20425;-74
2023/12/15 11:55:42;;;;;;;29.35;6.15;;;8.60;99.90;;;;;;5089894;28;20812;-74
2023/12/15 11:58:09;;;;;;;30.40;6.65;;;8.60;99.90;;;;;;5090694;28;20433;-74
2023/12/15 12:00:35;;;;;;;25.23;5.82;;;8.60;99.90;;;;;;5093244;28;20831;-74
2023/12/15 12:03:00;;;;;;;29.40;5.93;;;8.60;99.90;;;;;;5090464;28;20481;-74
2023/12/15 12:05:30;;;;;;;28.20;6.35;;;8.70;99.90;;;;;;5090651;28;20892;-74
2023/12/15 12:08:00;;;;;;;28.90;5.55;;;8.70;99.90;;;;;;5089691;28;20398;-73
2023/12/15 12:10:34;;;;;;;30.33;6.03;;;8.80;99.90;;;;;;5090036;28;20852;-74
2023/12/15 12:13:00;;;;;;;25.23;5.50;;;8.90;99.90;;;;;;5074386;28;20415;-74
2023/12/15 12:15:26;;;;;;;26.77;5.80;;;9.10;99.90;;;;;;5087918;28;20396;-74
2023/12/15 12:17:53;;;;;;;35.70;6.15;;;9.20;99.90;;;;;;5086670;28;20409;-74
2023/12/15 12:20:19;;;;;;;26.45;5.38;;;9.20;99.90;;;;;;5073083;28;20407;-74
2023/12/15 12:22:45;;;;;;;33.08;6.07;;;9.40;99.90;;;;;;5087949;28;20418;-74
2023/12/15 12:25:13;;;;;;;26.50;5.38;;;9.70;99.90;;;;;;5088171;28;20412;-74
2023/12/15 12:27:40;;;;;;;27.53;5.23;;;9.80;99.90;;;;;;5088010;28;21101;-74
2023/12/15 12:30:14;;;;;;;32.50;6.45;;;9.80;99.90;;;;;;5091802;28;20428;-74
2023/12/15 12:32:40;;;;;;;28.63;6.30;;;9.80;99.90;;;;;;5092369;28;20445;-74
2023/12/15 12:35:07;;;;;;;29.52;6.18;;;9.80;99.90;;;;;;5073993;28;20406;-74